Elk Grove, Pennsylvania
Current Conditions -  °F | °C
As of 10:35 AM on Friday 19 Dec 2014 (Local Time) from KHZL Reporting Station
Overcast Overcast  
Wind Chill: 23°   Ceiling: 2000
Heat Index: 32°   Visibility: 10mi
Dew Point: 23°   Wind: 13mph
Humidity: 69%   Direction: 300°WNW
Pressure: 30.07"   Gusts: 16mph
Location:  41.2534°N, 76.3299°W
Report Text: KHZL 191535Z AUTO 30011G14KT 10SM OVC020 00/M05 A3007 RMK AO2
Loading
Personal Weather Stations






























Interactive Weather Map New forecast layout! Learn more

10-Day Weather Forecast

Advertisements
Track Severe Weather on mobile